createdAt,value
2018-09-30T00:01:14.971Z,11.60
2018-09-30T00:03:48.408Z,11.50
2018-09-30T00:06:21.815Z,11.40
2018-09-30T00:08:55.279Z,11.40
2018-09-30T00:11:28.751Z,11.50
2018-09-30T00:14:02.183Z,11.10
2018-09-30T00:16:35.608Z,11.20
2018-09-30T00:19:09.027Z,11.20
2018-09-30T00:21:42.543Z,11.10
2018-09-30T00:24:21.274Z,11.10
2018-09-30T00:27:06.243Z,11.10
2018-09-30T00:29:39.667Z,11.10
2018-09-30T00:32:13.070Z,11.10
2018-09-30T00:34:46.469Z,11.10
2018-09-30T00:37:19.863Z,11.10
2018-09-30T00:39:53.278Z,11.20
2018-09-30T00:42:26.714Z,10.80
2018-09-30T00:45:00.130Z,10.90
2018-09-30T00:47:33.543Z,10.90
2018-09-30T00:50:08.039Z,10.80
2018-09-30T00:52:41.439Z,10.80
2018-09-30T00:55:14.850Z,10.40
2018-09-30T00:57:48.251Z,10.60
2018-09-30T01:00:21.694Z,10.70
2018-09-30T01:02:55.106Z,10.80
2018-09-30T01:05:28.522Z,10.70
2018-09-30T01:08:01.913Z,10.70
2018-09-30T01:10:35.316Z,10.60
2018-09-30T01:13:08.759Z,10.60
2018-09-30T01:15:42.162Z,10.60
2018-09-30T01:18:15.559Z,10.60
2018-09-30T01:20:48.972Z,10.40
2018-09-30T01:23:22.427Z,10.50
2018-09-30T01:25:56.918Z,10.40
2018-09-30T01:28:30.362Z,10.40
2018-09-30T01:31:03.778Z,10.50
2018-09-30T01:33:37.171Z,10.60
2018-09-30T01:36:10.574Z,10.60
2018-09-30T01:38:43.978Z,10.40
2018-09-30T01:41:17.402Z,10.40
2018-09-30T01:43:52.830Z,10.10
2018-09-30T01:46:26.234Z,10.10
2018-09-30T01:48:59.634Z,10.10
2018-09-30T01:51:33.046Z,10.20
2018-09-30T01:54:06.550Z,10.30
2018-09-30T01:56:39.959Z,10.20
2018-09-30T01:59:13.354Z,10.10
2018-09-30T02:01:46.770Z,10.00
2018-09-30T02:04:20.174Z,9.50
2018-09-30T02:06:53.590Z,9.70
2018-09-30T02:09:26.992Z,9.80
2018-09-30T02:12:00.398Z,9.80
2018-09-30T02:14:33.811Z,9.80
2018-09-30T02:17:07.234Z,9.90
2018-09-30T02:19:40.637Z,9.90
2018-09-30T02:22:14.087Z,9.90
2018-09-30T02:24:47.484Z,10.00
2018-09-30T02:27:20.887Z,10.00
2018-09-30T02:29:54.287Z,9.90
2018-09-30T02:32:27.690Z,9.90
2018-09-30T02:35:01.085Z,10.00
2018-09-30T02:37:34.510Z,10.00
2018-09-30T02:40:08.054Z,9.80
2018-09-30T02:42:41.463Z,9.70
2018-09-30T02:45:14.915Z,9.70
2018-09-30T02:47:48.314Z,9.70
2018-09-30T02:50:21.718Z,9.70
2018-09-30T02:52:55.134Z,9.70
2018-09-30T02:55:28.642Z,9.70
2018-09-30T02:58:02.043Z,9.70
2018-09-30T03:00:35.450Z,9.60
2018-09-30T03:03:08.878Z,9.60
2018-09-30T03:05:42.259Z,9.60
2018-09-30T03:08:21.006Z,9.70
2018-09-30T03:10:54.394Z,9.50
2018-09-30T03:13:28.890Z,9.50
2018-09-30T03:16:02.280Z,9.50
2018-09-30T03:18:35.686Z,9.50
2018-09-30T03:21:09.085Z,9.50
2018-09-30T03:23:42.511Z,9.60
2018-09-30T03:26:15.903Z,9.50
2018-09-30T03:28:49.318Z,9.50
2018-09-30T03:31:22.730Z,9.40
2018-09-30T03:33:57.215Z,9.50
2018-09-30T03:36:30.598Z,9.40
2018-09-30T03:39:04.659Z,9.40
2018-09-30T03:41:38.098Z,9.50
2018-09-30T03:44:11.514Z,9.40
2018-09-30T03:46:44.926Z,9.30
2018-09-30T03:49:18.330Z,9.30
2018-09-30T03:51:51.739Z,9.30
2018-09-30T03:54:25.210Z,9.40
2018-09-30T03:56:58.623Z,9.30
2018-09-30T03:59:32.038Z,9.30
2018-09-30T04:02:05.563Z,9.20
2018-09-30T04:04:38.972Z,9.20
2018-09-30T04:07:12.403Z,9.20
2018-09-30T04:09:45.980Z,9.30
2018-09-30T04:12:19.295Z,9.20
2018-09-30T04:14:52.694Z,9.20
2018-09-30T04:17:26.153Z,9.10
2018-09-30T04:19:59.531Z,9.10
2018-09-30T04:22:32.922Z,9.00
2018-09-30T04:25:06.395Z,9.00
2018-09-30T04:27:39.786Z,9.10
2018-09-30T04:30:13.210Z,9.00
2018-09-30T04:32:46.619Z,9.00
2018-09-30T04:35:20.023Z,9.00
2018-09-30T04:37:53.471Z,9.00
2018-09-30T04:40:26.962Z,9.00
2018-09-30T04:43:00.375Z,9.00
2018-09-30T04:45:33.842Z,9.00
2018-09-30T04:48:07.247Z,9.00
2018-09-30T04:50:40.666Z,9.00
2018-09-30T04:53:14.075Z,9.00
2018-09-30T04:55:47.498Z,9.00
2018-09-30T04:58:20.918Z,9.00
2018-09-30T05:00:54.342Z,9.00
2018-09-30T05:03:27.798Z,8.90
2018-09-30T05:06:01.209Z,8.90
2018-09-30T05:08:34.615Z,8.80
2018-09-30T05:11:08.302Z,8.80
2018-09-30T05:13:41.737Z,8.80
2018-09-30T05:16:15.202Z,8.80
2018-09-30T05:18:48.558Z,8.80
2018-09-30T05:21:21.966Z,8.60
2018-09-30T05:23:55.353Z,8.60
2018-09-30T05:26:28.776Z,8.60
2018-09-30T05:29:02.168Z,8.70
2018-09-30T05:31:35.570Z,8.70
2018-09-30T05:34:08.962Z,8.70
2018-09-30T05:36:42.386Z,8.70
2018-09-30T05:39:15.783Z,8.90
2018-09-30T05:41:49.279Z,8.90
2018-09-30T05:44:22.675Z,8.90
2018-09-30T05:46:56.094Z,8.80
2018-09-30T05:49:29.556Z,8.90
2018-09-30T05:52:02.995Z,8.80
2018-09-30T05:54:36.434Z,8.60
2018-09-30T05:57:09.833Z,8.60
2018-09-30T05:59:43.266Z,8.50
2018-09-30T06:02:16.661Z,8.30
2018-09-30T06:04:50.145Z,8.60
2018-09-30T06:07:23.501Z,8.70
2018-09-30T06:09:57.000Z,8.80
2018-09-30T06:12:30.407Z,8.80
2018-09-30T06:15:03.870Z,8.80
2018-09-30T06:17:37.269Z,8.90
2018-09-30T06:20:10.696Z,9.00
2018-09-30T06:22:44.087Z,9.30
2018-09-30T06:25:17.567Z,9.10
2018-09-30T06:27:50.967Z,9.00
2018-09-30T06:30:24.386Z,8.90
2018-09-30T06:32:57.781Z,8.80
2018-09-30T06:35:31.216Z,8.70
2018-09-30T06:38:04.623Z,8.80
2018-09-30T06:40:38.119Z,8.90
2018-09-30T06:43:11.545Z,9.00
2018-09-30T06:45:44.971Z,9.00
2018-09-30T06:48:18.387Z,9.10
2018-09-30T06:50:51.883Z,9.00
2018-09-30T06:53:25.259Z,9.10
2018-09-30T06:55:58.758Z,9.20
2018-09-30T06:58:32.182Z,9.30
2018-09-30T07:01:05.623Z,9.30
2018-09-30T07:03:39.088Z,9.40
2018-09-30T07:06:12.490Z,9.40
2018-09-30T07:08:45.887Z,9.40
2018-09-30T07:11:19.390Z,9.40
2018-09-30T07:13:52.787Z,9.60
2018-09-30T07:16:26.211Z,9.70
2018-09-30T07:18:59.631Z,9.80
2018-09-30T07:21:33.038Z,9.90
2018-09-30T07:24:06.454Z,10.00
2018-09-30T07:26:39.897Z,10.10
2018-09-30T07:29:13.311Z,10.20
2018-09-30T07:31:46.771Z,10.30
2018-09-30T07:34:20.193Z,10.30
2018-09-30T07:36:53.611Z,10.40
2018-09-30T07:39:27.046Z,10.60
2018-09-30T07:42:00.487Z,10.60
2018-09-30T07:44:33.956Z,10.70
2018-09-30T07:47:07.462Z,10.90
2018-09-30T07:49:40.859Z,11.10
2018-09-30T07:52:14.501Z,11.10
2018-09-30T07:54:47.890Z,11.20
2018-09-30T07:57:21.331Z,11.20
2018-09-30T07:59:54.718Z,11.30
2018-09-30T08:02:29.186Z,11.30
2018-09-30T08:05:02.583Z,11.50
2018-09-30T08:07:36.016Z,11.50
2018-09-30T08:10:09.419Z,11.50
2018-09-30T08:12:42.826Z,11.70
2018-09-30T08:15:16.243Z,11.80
2018-09-30T08:17:49.665Z,11.80
2018-09-30T08:20:23.114Z,11.50
2018-09-30T08:22:56.560Z,11.50
2018-09-30T08:25:29.956Z,11.50
2018-09-30T08:28:03.379Z,11.50
2018-09-30T08:30:36.786Z,11.70
2018-09-30T08:33:10.202Z,11.90
2018-09-30T08:35:46.963Z,11.90
2018-09-30T08:38:26.322Z,11.90
2018-09-30T08:41:05.498Z,12.10
2018-09-30T08:43:41.210Z,12.10
2018-09-30T08:46:14.614Z,12.20
2018-09-30T08:48:48.023Z,12.20
2018-09-30T08:51:21.414Z,12.20
2018-09-30T08:53:54.868Z,12.20
2018-09-30T08:56:28.246Z,12.40
2018-09-30T08:59:01.662Z,12.60
2018-09-30T09:01:35.215Z,12.80
2018-09-30T09:04:08.627Z,12.90
2018-09-30T09:06:42.019Z,13.00
2018-09-30T09:09:15.435Z,13.30
2018-09-30T09:11:48.820Z,13.40
2018-09-30T09:14:22.278Z,13.30
2018-09-30T09:16:55.681Z,13.50
2018-09-30T09:19:29.103Z,13.50
2018-09-30T09:22:02.526Z,13.30
2018-09-30T09:24:36.332Z,13.30
2018-09-30T09:27:09.808Z,13.40
2018-09-30T09:29:43.226Z,13.60
2018-09-30T09:32:17.674Z,13.70
2018-09-30T09:34:51.107Z,13.90
2018-09-30T09:37:24.518Z,13.90
2018-09-30T09:39:57.943Z,13.90
2018-09-30T09:42:31.365Z,14.00
2018-09-30T09:45:04.891Z,13.90
2018-09-30T09:47:38.294Z,14.00
2018-09-30T09:50:11.733Z,14.10
2018-09-30T09:52:45.140Z,14.20
2018-09-30T09:55:18.563Z,14.50
2018-09-30T09:57:51.976Z,14.70
2018-09-30T10:00:35.686Z,14.80
2018-09-30T10:03:09.146Z,14.70
2018-09-30T10:05:42.975Z,14.90
2018-09-30T10:08:16.423Z,15.00
2018-09-30T10:10:49.826Z,15.00
2018-09-30T10:13:23.342Z,15.10
2018-09-30T10:15:56.661Z,15.40
2018-09-30T10:18:30.110Z,15.50
2018-09-30T10:21:03.519Z,15.50
2018-09-30T10:23:36.942Z,15.60
2018-09-30T10:26:10.367Z,15.50
2018-09-30T10:28:43.792Z,15.70
2018-09-30T10:31:17.232Z,15.60
2018-09-30T10:33:50.639Z,15.70
2018-09-30T10:36:24.040Z,15.80
2018-09-30T10:38:57.536Z,15.80
2018-09-30T10:41:30.890Z,16.10
2018-09-30T10:44:04.326Z,16.20
2018-09-30T10:46:38.777Z,16.40
2018-09-30T10:49:12.215Z,16.50
2018-09-30T10:51:45.639Z,16.50
2018-09-30T10:54:19.060Z,16.50
2018-09-30T10:56:52.539Z,16.50
2018-09-30T10:59:25.920Z,16.50
2018-09-30T11:01:59.330Z,16.90
2018-09-30T11:04:32.750Z,16.90
2018-09-30T11:07:06.474Z,17.10
2018-09-30T11:09:39.996Z,17.00
2018-09-30T11:12:13.363Z,17.00
2018-09-30T11:14:46.797Z,17.20
2018-09-30T11:17:20.199Z,17.40
2018-09-30T11:19:53.617Z,17.50
2018-09-30T11:22:27.128Z,17.50
2018-09-30T11:25:00.555Z,17.50
2018-09-30T11:27:33.946Z,17.60
2018-09-30T11:30:07.390Z,17.60
2018-09-30T11:32:40.836Z,17.60
2018-09-30T11:35:14.294Z,17.60
2018-09-30T11:37:47.886Z,17.60
2018-09-30T11:40:21.327Z,17.80
2018-09-30T11:42:54.732Z,17.70
2018-09-30T11:45:28.147Z,17.80
2018-09-30T11:48:01.559Z,18.00
2018-09-30T11:50:34.974Z,18.20
2018-09-30T11:53:08.363Z,18.30
2018-09-30T11:55:41.775Z,18.40
2018-09-30T11:58:15.166Z,18.30
2018-09-30T12:00:48.592Z,18.30
2018-09-30T12:03:22.003Z,18.50
2018-09-30T12:05:55.429Z,18.60
2018-09-30T12:08:28.935Z,18.60
2018-09-30T12:11:02.352Z,18.70
2018-09-30T12:13:35.754Z,18.80
2018-09-30T12:16:09.175Z,18.80
2018-09-30T12:18:42.585Z,18.70
2018-09-30T12:21:16.158Z,18.60
2018-09-30T12:23:49.573Z,18.60
2018-09-30T12:26:22.995Z,18.70
2018-09-30T12:28:56.388Z,18.70
2018-09-30T12:31:29.809Z,19.00
2018-09-30T12:34:03.213Z,19.10
2018-09-30T12:36:36.631Z,18.90
2018-09-30T12:39:10.949Z,19.10
2018-09-30T12:41:44.375Z,19.10
2018-09-30T12:44:17.870Z,19.40
2018-09-30T12:46:51.296Z,19.50
2018-09-30T12:49:24.686Z,19.60
2018-09-30T12:51:58.131Z,19.60
2018-09-30T12:54:31.543Z,19.70
2018-09-30T12:57:04.975Z,19.60
2018-09-30T12:59:38.390Z,19.60
2018-09-30T13:02:11.810Z,19.70
2018-09-30T13:04:45.202Z,19.90
2018-09-30T13:07:18.635Z,20.10
2018-09-30T13:09:52.030Z,20.10
2018-09-30T13:12:25.459Z,20.30
2018-09-30T13:14:58.850Z,20.10
2018-09-30T13:17:32.303Z,20.10
2018-09-30T13:20:06.116Z,20.40
2018-09-30T13:22:39.572Z,20.30
2018-09-30T13:25:12.957Z,20.30
2018-09-30T13:27:46.370Z,20.40
2018-09-30T13:30:19.788Z,20.30
2018-09-30T13:32:53.211Z,20.40
2018-09-30T13:35:26.619Z,20.50
2018-09-30T13:38:00.864Z,20.70
2018-09-30T13:40:34.391Z,20.60
2018-09-30T13:43:07.713Z,20.80
2018-09-30T13:45:41.152Z,20.80
2018-09-30T13:48:14.566Z,20.90
2018-09-30T13:50:47.991Z,20.80
2018-09-30T13:53:21.410Z,20.80
2018-09-30T13:55:54.805Z,20.90
2018-09-30T13:58:28.319Z,20.80
2018-09-30T14:01:01.795Z,20.80
2018-09-30T14:03:35.219Z,20.80
2018-09-30T14:06:08.616Z,20.90
2018-09-30T14:08:42.022Z,20.80
2018-09-30T14:11:15.415Z,21.10
2018-09-30T14:13:48.836Z,21.20
2018-09-30T14:16:22.306Z,21.20
2018-09-30T14:18:55.747Z,21.20
2018-09-30T14:21:29.197Z,21.30
2018-09-30T14:24:02.636Z,21.40
2018-09-30T14:26:36.087Z,21.40
2018-09-30T14:29:09.499Z,21.60
2018-09-30T14:31:42.899Z,21.50
2018-09-30T14:34:16.343Z,21.50
2018-09-30T14:36:49.791Z,21.60
2018-09-30T14:39:23.218Z,21.60
2018-09-30T14:41:56.619Z,21.60
2018-09-30T14:44:30.041Z,21.60
2018-09-30T14:47:03.476Z,21.60
2018-09-30T14:49:36.920Z,21.70
2018-09-30T14:52:10.315Z,21.60
2018-09-30T14:54:43.756Z,21.60
2018-09-30T14:57:18.195Z,21.60
2018-09-30T14:59:51.664Z,21.70
2018-09-30T15:02:25.138Z,21.80
2018-09-30T15:04:58.547Z,21.80
2018-09-30T15:07:31.981Z,21.70
2018-09-30T15:10:05.429Z,21.60
2018-09-30T15:12:38.828Z,21.60
2018-09-30T15:15:12.239Z,21.60
2018-09-30T15:17:45.663Z,21.60
2018-09-30T15:20:19.079Z,21.50
2018-09-30T15:22:52.510Z,21.20
2018-09-30T15:25:25.931Z,21.20
2018-09-30T15:27:59.331Z,21.10
2018-09-30T15:30:32.805Z,21.10
2018-09-30T15:33:06.203Z,21.00
2018-09-30T15:35:39.622Z,20.80
2018-09-30T15:38:13.011Z,20.70
2018-09-30T15:40:46.439Z,20.80
2018-09-30T15:43:19.847Z,20.90
2018-09-30T15:45:53.367Z,20.90
2018-09-30T15:48:26.766Z,20.90
2018-09-30T15:51:00.270Z,20.90
2018-09-30T15:53:33.671Z,20.90
2018-09-30T15:56:07.231Z,21.00
2018-09-30T15:58:40.619Z,21.00
2018-09-30T16:01:14.040Z,20.90
2018-09-30T16:03:47.434Z,20.90
2018-09-30T16:06:24.718Z,20.90
2018-09-30T16:08:58.226Z,20.90
2018-09-30T16:11:31.648Z,20.90
2018-09-30T16:14:05.089Z,21.00
2018-09-30T16:16:38.495Z,21.00
2018-09-30T16:19:11.914Z,21.00
2018-09-30T16:21:45.335Z,21.10
2018-09-30T16:24:18.738Z,21.10
2018-09-30T16:26:52.139Z,21.10
2018-09-30T16:29:25.554Z,21.10
2018-09-30T16:31:58.954Z,21.10
2018-09-30T16:34:32.383Z,21.00
2018-09-30T16:37:05.815Z,21.00
2018-09-30T16:39:39.226Z,21.00
2018-09-30T16:42:12.671Z,20.90
2018-09-30T16:44:46.087Z,20.90
2018-09-30T16:47:19.487Z,20.80
2018-09-30T16:49:52.901Z,20.80
2018-09-30T16:52:26.367Z,20.80
2018-09-30T16:54:59.791Z,20.70
2018-09-30T16:57:33.259Z,20.70
2018-09-30T17:00:07.927Z,20.60
2018-09-30T17:02:41.330Z,20.50
2018-09-30T17:05:14.743Z,20.40
2018-09-30T17:07:48.135Z,20.40
2018-09-30T17:10:21.597Z,20.30
2018-09-30T17:12:55.022Z,20.20
2018-09-30T17:15:28.429Z,20.00
2018-09-30T17:18:01.823Z,19.80
2018-09-30T17:20:35.261Z,19.80
2018-09-30T17:23:08.695Z,19.70
2018-09-30T17:25:42.123Z,19.30
2018-09-30T17:28:15.536Z,19.30
2018-09-30T17:30:49.015Z,19.30
2018-09-30T17:33:22.415Z,19.40
2018-09-30T17:35:55.896Z,19.50
2018-09-30T17:38:29.438Z,19.40
2018-09-30T17:41:02.919Z,19.20
2018-09-30T17:43:36.345Z,19.20
2018-09-30T17:46:09.979Z,19.20
2018-09-30T17:48:43.383Z,19.20
2018-09-30T17:51:16.862Z,19.10
2018-09-30T17:53:50.250Z,19.10
2018-09-30T17:56:23.662Z,19.00
2018-09-30T17:58:57.142Z,18.50
2018-09-30T18:01:30.562Z,18.70
2018-09-30T18:04:04.030Z,18.70
2018-09-30T18:06:37.443Z,18.70
2018-09-30T18:09:12.866Z,18.60
2018-09-30T18:11:46.322Z,18.60
2018-09-30T18:14:19.722Z,18.60
2018-09-30T18:16:53.178Z,18.60
2018-09-30T18:19:26.622Z,18.50
2018-09-30T18:22:00.031Z,18.50
2018-09-30T18:24:33.470Z,18.50
2018-09-30T18:27:06.883Z,18.40
2018-09-30T18:29:40.285Z,18.40
2018-09-30T18:32:13.698Z,18.30
2018-09-30T18:34:47.534Z,18.30
2018-09-30T18:37:21.131Z,18.30
2018-09-30T18:39:54.666Z,18.30
2018-09-30T18:42:28.048Z,18.20
2018-09-30T18:45:01.920Z,18.20
2018-09-30T18:47:35.318Z,18.20
2018-09-30T18:50:08.726Z,18.20
2018-09-30T18:52:42.125Z,18.20
2018-09-30T18:55:15.566Z,18.20
2018-09-30T18:57:48.990Z,18.20
2018-09-30T19:00:25.539Z,18.10
2018-09-30T19:02:58.982Z,18.10
2018-09-30T19:05:32.455Z,18.10
2018-09-30T19:08:06.169Z,18.10
2018-09-30T19:10:40.658Z,17.70
2018-09-30T19:13:14.068Z,17.70
2018-09-30T19:15:47.562Z,17.70
2018-09-30T19:18:20.975Z,17.70
2018-09-30T19:20:54.362Z,17.70
2018-09-30T19:23:27.774Z,17.70
2018-09-30T19:26:02.239Z,17.70
2018-09-30T19:28:35.655Z,17.70
2018-09-30T19:31:09.058Z,17.70
2018-09-30T19:33:42.487Z,17.70
2018-09-30T19:36:15.915Z,17.70
2018-09-30T19:38:49.348Z,17.60
2018-09-30T19:41:22.776Z,17.60
2018-09-30T19:43:56.200Z,17.50
2018-09-30T19:46:29.611Z,17.30
2018-09-30T19:49:03.059Z,17.30
2018-09-30T19:51:36.479Z,17.20
2018-09-30T19:54:09.973Z,17.10
2018-09-30T19:56:43.351Z,17.10
2018-09-30T19:59:16.779Z,17.20
2018-09-30T20:01:50.187Z,17.20
2018-09-30T20:04:23.610Z,17.10
2018-09-30T20:06:57.022Z,17.00
2018-09-30T20:09:30.491Z,17.10
2018-09-30T20:12:03.875Z,17.10
2018-09-30T20:14:37.347Z,16.80
2018-09-30T20:17:10.750Z,17.00
2018-09-30T20:19:44.188Z,17.10
2018-09-30T20:22:17.599Z,17.10
2018-09-30T20:24:54.577Z,17.00
2018-09-30T20:27:27.966Z,16.80
2018-09-30T20:30:01.386Z,16.70
2018-09-30T20:32:34.795Z,16.50
2018-09-30T20:35:08.519Z,16.50
2018-09-30T20:37:41.930Z,16.60
2018-09-30T20:40:15.366Z,16.60
2018-09-30T20:42:48.775Z,16.20
2018-09-30T20:45:22.218Z,15.80
2018-09-30T20:47:55.618Z,15.90
2018-09-30T20:50:29.171Z,16.00
2018-09-30T20:53:02.666Z,16.10
2018-09-30T20:55:36.150Z,16.10
2018-09-30T20:58:09.570Z,16.20
2018-09-30T21:00:46.850Z,16.30
2018-09-30T21:03:21.354Z,16.30
2018-09-30T21:06:07.676Z,16.30
2018-09-30T21:08:41.181Z,16.30
2018-09-30T21:11:14.661Z,16.20
2018-09-30T21:13:48.099Z,16.20
2018-09-30T21:16:21.509Z,16.30
2018-09-30T21:18:54.959Z,16.30
2018-09-30T21:21:28.369Z,16.30
2018-09-30T21:24:01.791Z,16.30
2018-09-30T21:26:35.198Z,16.30
2018-09-30T21:29:08.646Z,16.40
2018-09-30T21:31:42.057Z,16.40
2018-09-30T21:34:15.648Z,16.30
2018-09-30T21:36:49.005Z,16.30
2018-09-30T21:39:23.484Z,16.30
2018-09-30T21:41:56.919Z,16.40
2018-09-30T21:44:30.339Z,16.00
2018-09-30T21:47:03.791Z,15.90
2018-09-30T21:49:37.215Z,15.90
2018-09-30T21:52:10.607Z,15.80
2018-09-30T21:54:44.023Z,16.00
2018-09-30T21:57:17.450Z,16.10
2018-09-30T21:59:50.889Z,16.00
2018-09-30T22:02:26.371Z,16.10
2018-09-30T22:04:59.791Z,16.00
2018-09-30T22:07:33.196Z,16.00
2018-09-30T22:10:06.682Z,16.00
2018-09-30T22:12:40.090Z,16.00
2018-09-30T22:15:13.524Z,16.10
2018-09-30T22:17:47.000Z,15.80
2018-09-30T22:20:20.431Z,15.80
2018-09-30T22:22:53.935Z,15.90
2018-09-30T22:25:27.372Z,15.90
2018-09-30T22:28:01.221Z,15.90
2018-09-30T22:30:34.831Z,15.90
2018-09-30T22:33:08.235Z,15.90
2018-09-30T22:35:41.715Z,16.00
2018-09-30T22:38:15.147Z,16.00
2018-09-30T22:40:48.644Z,15.90
2018-09-30T22:43:22.045Z,15.90
2018-09-30T22:45:55.479Z,16.00
2018-09-30T22:48:28.886Z,15.90
2018-09-30T22:51:02.301Z,15.90
2018-09-30T22:53:35.719Z,15.90
2018-09-30T22:56:09.178Z,15.90
2018-09-30T22:58:42.587Z,16.00
2018-09-30T23:01:16.025Z,16.00
2018-09-30T23:03:49.527Z,16.00
2018-09-30T23:06:22.942Z,16.00
2018-09-30T23:08:56.352Z,16.10
2018-09-30T23:11:29.791Z,16.10
2018-09-30T23:14:03.207Z,16.10
2018-09-30T23:16:36.623Z,16.20
2018-09-30T23:19:10.043Z,16.10
2018-09-30T23:21:43.459Z,16.00
2018-09-30T23:24:16.858Z,16.10
2018-09-30T23:26:50.275Z,16.10
2018-09-30T23:29:23.683Z,16.10
2018-09-30T23:31:57.151Z,16.00
2018-09-30T23:34:30.564Z,16.00
2018-09-30T23:37:04.015Z,16.00
2018-09-30T23:39:37.440Z,16.00
2018-09-30T23:42:10.948Z,16.00
2018-09-30T23:44:44.347Z,16.10
2018-09-30T23:47:17.754Z,16.10
2018-09-30T23:49:51.146Z,16.10
2018-09-30T23:52:24.603Z,16.10
2018-09-30T23:54:58.018Z,16.10
2018-09-30T23:57:31.455Z,16.00
